マスカット の空港の天気 - METARとTAF

シーブ国際空港 ( OOMS / MCT ) - オマーン マスカット
飛行場実況気象(Metar)
観測時間08/13 08:50 GST (08/13 04:50 UTC)
風向・風速北東 5m/s
視程6000m
天気現象
なし
気温30℃
湿度94%
気圧998hPa
METAROOMS 130450Z 04009KT 6000 NSC 30/29 Q0998 NOSIG
過去の天気等 Google飛行場航空写真 Wunderground天気予報

過去48時間のMETAR

飛行場予報(TAF)
発表時間: 8/13 03:00 GST (8/12 23:00 UTC)
予報対象時間: 13日4時 GST ~ 14日10時 GST
風向・風速不定 1m/s
視程8000m
なし
13日4時 GST ~ 13日8時 GST に 確率 30% で一時的に
視程4000m
天気現象もや
全天の4割程度の雲 雲底高度 610m
13日10時 GST ~ 13日12時 GST に徐々に
風向・風速東 6m/s
TAF OOMS 122300Z 1300/1406 VRB02KT 8000 NSC
PROB30 TEMPO 1300/1304 4000 BR SCT020
BECMG 1306/1308 08012KT